createdAt,value
2018-05-12T00:02:16.444Z,79.70
2018-05-12T00:04:44.013Z,80.00
2018-05-12T00:07:11.487Z,80.80
2018-05-12T00:09:39.026Z,80.20
2018-05-12T00:12:06.586Z,80.00
2018-05-12T00:14:34.145Z,80.00
2018-05-12T00:17:01.610Z,80.40
2018-05-12T00:19:29.838Z,80.30
2018-05-12T00:21:57.345Z,80.30
2018-05-12T00:24:24.812Z,80.30
2018-05-12T00:26:52.368Z,80.50
2018-05-12T00:29:19.832Z,80.60
2018-05-12T00:31:47.292Z,80.30
2018-05-12T00:34:14.757Z,80.70
2018-05-12T00:36:42.300Z,81.20
2018-05-12T00:39:09.765Z,80.80
2018-05-12T00:41:37.312Z,80.60
2018-05-12T00:44:04.780Z,79.80
2018-05-12T00:46:32.328Z,80.30
2018-05-12T00:48:59.776Z,81.00
2018-05-12T00:51:27.352Z,81.20
2018-05-12T00:53:54.816Z,81.30
2018-05-12T00:56:23.047Z,81.80
2018-05-12T00:58:50.504Z,81.80
2018-05-12T01:01:17.970Z,82.20
2018-05-12T01:03:45.436Z,82.20
2018-05-12T01:06:12.923Z,82.60
2018-05-12T01:08:40.481Z,83.20
2018-05-12T01:11:07.957Z,83.00
2018-05-12T01:13:35.509Z,82.70
2018-05-12T01:16:03.677Z,81.10
2018-05-12T01:18:31.140Z,81.00
2018-05-12T01:20:58.608Z,79.90
2018-05-12T01:23:26.865Z,81.00
2018-05-12T01:25:54.337Z,80.30
2018-05-12T01:28:21.884Z,80.90
2018-05-12T01:30:49.344Z,81.20
2018-05-12T01:33:16.821Z,81.50
2018-05-12T01:35:44.360Z,81.90
2018-05-12T01:38:11.917Z,81.50
2018-05-12T01:40:39.482Z,81.70
2018-05-12T01:43:06.942Z,82.20
2018-05-12T01:45:34.413Z,82.10
2018-05-12T01:48:01.873Z,82.60
2018-05-12T01:50:30.137Z,82.30
2018-05-12T01:52:57.600Z,82.20
2018-05-12T01:55:25.149Z,82.30
2018-05-12T01:57:52.708Z,82.00
2018-05-12T02:00:20.196Z,82.00
2018-05-12T02:02:47.727Z,82.80
2018-05-12T02:05:15.289Z,81.70
2018-05-12T02:07:43.508Z,82.20
2018-05-12T02:10:11.036Z,82.10
2018-05-12T02:12:38.493Z,82.40
2018-05-12T02:15:06.042Z,82.60
2018-05-12T02:17:33.605Z,82.10
2018-05-12T02:20:01.072Z,82.40
2018-05-12T02:22:28.533Z,82.30
2018-05-12T02:24:56.044Z,81.60
2018-05-12T02:27:23.536Z,81.20
2018-05-12T02:29:50.992Z,81.60
2018-05-12T02:32:18.554Z,81.70
2018-05-12T02:34:46.075Z,81.70
2018-05-12T02:37:14.648Z,81.80
2018-05-12T02:39:42.105Z,81.60
2018-05-12T02:42:09.616Z,81.80
2018-05-12T02:44:37.176Z,81.80
2018-05-12T02:47:04.745Z,82.00
2018-05-12T02:49:32.980Z,81.90
2018-05-12T02:52:00.461Z,81.90
2018-05-12T02:54:28.033Z,82.30
2018-05-12T02:56:55.588Z,82.30
2018-05-12T02:59:23.054Z,82.60
2018-05-12T03:01:50.570Z,82.70
2018-05-12T03:04:18.029Z,82.20
2018-05-12T03:06:45.492Z,82.20
2018-05-12T03:09:12.952Z,82.40
2018-05-12T03:11:40.452Z,81.80
2018-05-12T03:14:07.916Z,81.30
2018-05-12T03:16:35.376Z,80.40
2018-05-12T03:19:03.601Z,79.20
2018-05-12T03:21:31.077Z,79.20
2018-05-12T03:23:58.553Z,79.80
2018-05-12T03:26:26.172Z,79.70
2018-05-12T03:28:53.669Z,80.20
2018-05-12T03:31:21.133Z,79.70
2018-05-12T03:33:48.673Z,80.00
2018-05-12T03:36:16.145Z,79.80
2018-05-12T03:38:43.704Z,79.80
2018-05-12T03:41:11.160Z,80.00
2018-05-12T03:43:38.625Z,79.70
2018-05-12T03:46:06.086Z,79.40
2018-05-12T03:48:33.644Z,79.70
2018-05-12T03:51:01.200Z,80.40
2018-05-12T03:53:28.765Z,79.80
2018-05-12T03:55:56.329Z,79.60
2018-05-12T03:58:23.793Z,79.70
2018-05-12T04:00:51.347Z,80.00
2018-05-12T04:03:18.896Z,80.00
2018-05-12T04:05:58.298Z,80.00
2018-05-12T04:08:37.839Z,80.10
2018-05-12T04:11:17.501Z,80.40
2018-05-12T04:13:44.984Z,79.80
2018-05-12T04:16:12.457Z,80.00
2018-05-12T04:18:40.007Z,80.20
2018-05-12T04:21:08.319Z,79.80
2018-05-12T04:23:35.732Z,79.20
2018-05-12T04:26:03.189Z,78.80
2018-05-12T04:28:30.756Z,78.70
2018-05-12T04:30:58.313Z,78.30
2018-05-12T04:33:25.874Z,78.60
2018-05-12T04:35:53.339Z,78.80
2018-05-12T04:38:20.802Z,78.30
2018-05-12T04:40:48.356Z,78.70
2018-05-12T04:43:15.923Z,78.40
2018-05-12T04:45:43.376Z,78.60
2018-05-12T04:48:10.842Z,78.20
2018-05-12T04:50:38.300Z,78.50
2018-05-12T04:53:05.765Z,78.30
2018-05-12T04:55:33.305Z,78.30
2018-05-12T04:58:00.869Z,78.50
2018-05-12T05:00:28.325Z,79.10
2018-05-12T05:02:55.797Z,78.00
2018-05-12T05:05:23.345Z,77.90
2018-05-12T05:07:50.804Z,77.90
2018-05-12T05:10:18.421Z,77.50
2018-05-12T05:12:45.873Z,77.50
2018-05-12T05:15:13.430Z,76.70
2018-05-12T05:17:40.942Z,76.50
2018-05-12T05:20:08.400Z,75.80
2018-05-12T05:22:36.735Z,74.80
2018-05-12T05:25:04.193Z,74.80
2018-05-12T05:27:31.755Z,73.10
2018-05-12T05:29:59.204Z,71.00
2018-05-12T05:32:26.775Z,71.00
2018-05-12T05:34:54.286Z,70.70
2018-05-12T05:37:21.790Z,71.00
2018-05-12T05:39:49.294Z,71.00
2018-05-12T05:42:16.809Z,71.90
2018-05-12T05:44:44.307Z,71.70
2018-05-12T05:47:11.864Z,71.70
2018-05-12T05:49:39.424Z,72.60
2018-05-12T05:52:06.948Z,72.10
2018-05-12T05:54:34.445Z,72.70
2018-05-12T05:57:02.006Z,73.10
2018-05-12T05:59:29.569Z,73.60
2018-05-12T06:01:57.036Z,74.00
2018-05-12T06:04:24.496Z,73.70
2018-05-12T06:06:52.111Z,73.30
2018-05-12T06:09:19.566Z,73.10
2018-05-12T06:11:47.124Z,72.80
2018-05-12T06:14:14.616Z,72.80
2018-05-12T06:16:42.079Z,73.00
2018-05-12T06:19:09.642Z,72.80
2018-05-12T06:21:37.097Z,71.90
2018-05-12T06:24:04.557Z,71.70
2018-05-12T06:26:32.116Z,72.00
2018-05-12T06:28:59.576Z,71.90
2018-05-12T06:31:27.036Z,70.90
2018-05-12T06:33:54.494Z,69.40
2018-05-12T06:36:22.010Z,68.80
2018-05-12T06:38:49.517Z,67.90
2018-05-12T06:41:17.065Z,66.40
2018-05-12T06:43:44.629Z,66.10
2018-05-12T06:46:12.157Z,65.80
2018-05-12T06:48:39.649Z,65.80
2018-05-12T06:51:07.117Z,66.50
2018-05-12T06:53:34.665Z,66.10
2018-05-12T06:56:02.224Z,66.60
2018-05-12T06:58:29.789Z,65.50
2018-05-12T07:00:57.264Z,64.70
2018-05-12T07:03:25.525Z,63.80
2018-05-12T07:05:52.980Z,63.80
2018-05-12T07:08:20.441Z,60.80
2018-05-12T07:10:47.904Z,61.40
2018-05-12T07:13:15.364Z,61.10
2018-05-12T07:15:42.918Z,60.80
2018-05-12T07:18:10.482Z,59.90
2018-05-12T07:20:38.038Z,59.40
2018-05-12T07:23:05.556Z,58.50
2018-05-12T07:25:33.076Z,57.90
2018-05-12T07:28:01.312Z,57.80
2018-05-12T07:30:28.793Z,57.80
2018-05-12T07:32:56.262Z,56.60
2018-05-12T07:35:23.726Z,55.80
2018-05-12T07:37:51.183Z,56.60
2018-05-12T07:40:18.744Z,57.20
2018-05-12T07:42:46.285Z,56.70
2018-05-12T07:45:13.761Z,55.10
2018-05-12T07:47:41.300Z,56.20
2018-05-12T07:50:08.931Z,55.80
2018-05-12T07:52:36.398Z,56.00
2018-05-12T07:55:03.862Z,55.00
2018-05-12T07:57:31.354Z,55.30
2018-05-12T07:59:58.812Z,56.00
2018-05-12T08:02:27.049Z,55.10
2018-05-12T08:04:54.529Z,55.00
2018-05-12T08:07:22.092Z,54.90
2018-05-12T08:09:49.653Z,54.50
2018-05-12T08:12:17.214Z,54.60
2018-05-12T08:14:44.681Z,54.30
2018-05-12T08:17:12.232Z,54.10
2018-05-12T08:19:39.690Z,53.90
2018-05-12T08:22:07.154Z,54.20
2018-05-12T08:24:34.704Z,54.00
2018-05-12T08:27:02.277Z,54.00
2018-05-12T08:29:29.732Z,53.90
2018-05-12T08:31:57.200Z,53.60
2018-05-12T08:34:24.750Z,53.50
2018-05-12T08:36:52.209Z,53.00
2018-05-12T08:39:19.675Z,52.90
2018-05-12T08:41:47.179Z,53.10
2018-05-12T08:44:14.681Z,52.90
2018-05-12T08:46:42.146Z,51.10
2018-05-12T08:49:09.702Z,50.50
2018-05-12T08:51:37.187Z,50.20
2018-05-12T08:54:05.429Z,50.90
2018-05-12T08:56:32.893Z,50.90
2018-05-12T08:59:00.364Z,50.30
2018-05-12T09:01:27.973Z,50.50
2018-05-12T09:03:55.372Z,49.70
2018-05-12T09:06:22.829Z,48.60
2018-05-12T09:08:50.397Z,48.90
2018-05-12T09:11:17.948Z,48.40
2018-05-12T09:13:45.420Z,48.80
2018-05-12T09:16:12.962Z,48.90
2018-05-12T09:18:40.431Z,49.50
2018-05-12T09:21:07.973Z,49.00
2018-05-12T09:23:35.502Z,49.50
2018-05-12T09:26:02.964Z,49.50
2018-05-12T09:28:30.462Z,49.90
2018-05-12T09:30:57.936Z,50.00
2018-05-12T09:33:25.538Z,49.10
2018-05-12T09:35:53.045Z,49.90
2018-05-12T09:38:20.614Z,49.10
2018-05-12T09:40:48.116Z,49.10
2018-05-12T09:43:15.577Z,48.70
2018-05-12T09:45:43.039Z,48.90
2018-05-12T09:48:10.523Z,47.20
2018-05-12T09:50:38.097Z,47.10
2018-05-12T09:53:06.335Z,45.70
2018-05-12T09:55:33.796Z,46.30
2018-05-12T09:58:01.276Z,45.30
2018-05-12T10:00:28.751Z,45.70
2018-05-12T10:02:56.214Z,45.80
2018-05-12T10:05:23.672Z,45.80
2018-05-12T10:07:51.179Z,45.50
2018-05-12T10:10:18.636Z,46.00
2018-05-12T10:12:46.175Z,45.60
2018-05-12T10:15:13.569Z,44.90
2018-05-12T10:17:41.033Z,44.60
2018-05-12T10:20:08.519Z,44.30
2018-05-12T10:22:36.075Z,42.90
2018-05-12T10:25:03.534Z,43.30
2018-05-12T10:27:31.092Z,43.00
2018-05-12T10:29:58.657Z,43.10
2018-05-12T10:32:26.126Z,43.60
2018-05-12T10:34:53.630Z,44.80
2018-05-12T10:37:21.095Z,46.00
2018-05-12T10:39:48.562Z,45.90
2018-05-12T10:42:16.029Z,47.00
2018-05-12T10:44:43.539Z,43.10
2018-05-12T10:47:10.966Z,44.10
2018-05-12T10:49:38.524Z,43.90
2018-05-12T10:52:05.991Z,44.50
2018-05-12T10:54:33.545Z,44.30
2018-05-12T10:57:01.006Z,44.10
2018-05-12T10:59:28.552Z,42.40
2018-05-12T11:01:56.018Z,42.10
2018-05-12T11:04:23.472Z,42.00
2018-05-12T11:06:51.762Z,41.70
2018-05-12T11:09:19.308Z,41.10
2018-05-12T11:11:46.773Z,40.10
2018-05-12T11:14:14.333Z,41.20
2018-05-12T11:16:42.608Z,39.70
2018-05-12T11:19:10.881Z,41.90
2018-05-12T11:21:38.396Z,41.20
2018-05-12T11:24:05.896Z,41.70
2018-05-12T11:26:33.463Z,39.30
2018-05-12T11:29:01.025Z,40.70
2018-05-12T11:31:28.496Z,40.60
2018-05-12T11:33:55.953Z,41.20
2018-05-12T11:36:24.208Z,40.00
2018-05-12T11:38:51.984Z,40.00
2018-05-12T11:41:20.000Z,39.50
2018-05-12T11:43:47.513Z,39.50
2018-05-12T11:46:15.072Z,41.00
2018-05-12T11:48:42.636Z,38.80
2018-05-12T11:51:10.194Z,38.60
2018-05-12T11:53:37.751Z,39.10
2018-05-12T11:56:05.313Z,39.20
2018-05-12T11:58:33.590Z,39.50
2018-05-12T12:01:01.059Z,39.50
2018-05-12T12:03:28.521Z,38.80
2018-05-12T12:05:55.976Z,38.00
2018-05-12T12:08:23.437Z,39.20
2018-05-12T12:10:51.664Z,40.30
2018-05-12T12:13:19.153Z,39.70
2018-05-12T12:15:46.600Z,39.70
2018-05-12T12:18:14.073Z,39.60
2018-05-12T12:20:41.534Z,39.30
2018-05-12T12:23:09.001Z,39.60
2018-05-12T12:25:36.478Z,39.50
2018-05-12T12:28:04.721Z,39.30
2018-05-12T12:30:32.181Z,39.30
2018-05-12T12:32:59.637Z,39.90
2018-05-12T12:35:27.167Z,39.20
2018-05-12T12:37:54.659Z,39.80
2018-05-12T12:40:22.125Z,39.90
2018-05-12T12:42:49.586Z,40.20
2018-05-12T12:45:17.136Z,40.60
2018-05-12T12:47:44.601Z,41.20
2018-05-12T12:50:12.166Z,42.10
2018-05-12T12:52:39.620Z,42.60
2018-05-12T12:55:07.232Z,42.30
2018-05-12T12:57:34.729Z,42.40
2018-05-12T13:00:02.189Z,41.70
2018-05-12T13:02:29.656Z,41.90
2018-05-12T13:04:57.254Z,41.10
2018-05-12T13:07:24.672Z,40.80
2018-05-12T13:09:52.225Z,41.30
2018-05-12T13:12:19.789Z,41.90
2018-05-12T13:14:47.268Z,42.40
2018-05-12T13:17:15.500Z,42.40
2018-05-12T13:19:42.977Z,42.30
2018-05-12T13:22:10.501Z,42.20
2018-05-12T13:24:37.896Z,41.50
2018-05-12T13:27:05.353Z,41.40
2018-05-12T13:29:32.910Z,40.00
2018-05-12T13:32:00.473Z,40.40
2018-05-12T13:34:27.945Z,40.50
2018-05-12T13:36:56.213Z,40.60
2018-05-12T13:39:23.664Z,40.60
2018-05-12T13:41:51.224Z,41.70
2018-05-12T13:44:18.789Z,42.00
2018-05-12T13:46:46.249Z,42.40
2018-05-12T13:49:13.805Z,41.60
2018-05-12T13:51:41.261Z,42.00
2018-05-12T13:54:08.826Z,42.20
2018-05-12T13:56:36.383Z,41.90
2018-05-12T13:59:03.836Z,40.90
2018-05-12T14:01:31.409Z,40.90
2018-05-12T14:03:58.869Z,41.00
2018-05-12T14:06:26.332Z,41.00
2018-05-12T14:08:53.890Z,40.60
2018-05-12T14:11:21.349Z,40.00
2018-05-12T14:13:48.903Z,41.00
2018-05-12T14:16:16.462Z,40.80
2018-05-12T14:18:43.921Z,40.00
2018-05-12T14:21:11.393Z,40.00
2018-05-12T14:23:38.852Z,41.50
2018-05-12T14:26:07.088Z,40.40
2018-05-12T14:28:34.546Z,40.90
2018-05-12T14:31:02.038Z,41.90
2018-05-12T14:33:29.586Z,41.80
2018-05-12T14:35:57.041Z,41.60
2018-05-12T14:38:24.666Z,42.30
2018-05-12T14:40:52.226Z,42.00
2018-05-12T14:43:19.673Z,42.10
2018-05-12T14:45:47.142Z,42.50
2018-05-12T14:48:14.637Z,41.90
2018-05-12T14:50:42.161Z,42.30
2018-05-12T14:53:09.657Z,42.30
2018-05-12T14:55:37.221Z,41.70
2018-05-12T14:58:04.781Z,42.20
2018-05-12T15:00:32.244Z,42.20
2018-05-12T15:02:59.711Z,42.40
2018-05-12T15:05:27.257Z,42.30
2018-05-12T15:07:54.718Z,42.00
2018-05-12T15:10:22.278Z,42.50
2018-05-12T15:12:49.742Z,42.40
2018-05-12T15:15:17.212Z,43.20
2018-05-12T15:17:44.674Z,42.90
2018-05-12T15:20:12.988Z,42.80
2018-05-12T15:22:40.484Z,42.80
2018-05-12T15:25:07.944Z,42.20
2018-05-12T15:27:35.404Z,41.40
2018-05-12T15:30:02.961Z,41.30
2018-05-12T15:32:30.416Z,41.80
2018-05-12T15:34:57.989Z,41.90
2018-05-12T15:37:25.548Z,42.80
2018-05-12T15:39:53.017Z,41.30
2018-05-12T15:42:20.477Z,41.10
2018-05-12T15:44:47.933Z,40.80
2018-05-12T15:47:15.475Z,41.50
2018-05-12T15:49:43.039Z,40.80
2018-05-12T15:52:10.593Z,40.90
2018-05-12T15:54:38.160Z,40.30
2018-05-12T15:57:05.629Z,40.30
2018-05-12T15:59:33.859Z,40.10
2018-05-12T16:02:01.356Z,40.00
2018-05-12T16:04:28.910Z,40.30
2018-05-12T16:06:56.469Z,40.30
2018-05-12T16:09:24.032Z,40.40
2018-05-12T16:11:51.594Z,40.00
2018-05-12T16:14:19.148Z,39.90
2018-05-12T16:16:46.612Z,39.80
2018-05-12T16:19:14.176Z,40.20
2018-05-12T16:21:41.625Z,39.20
2018-05-12T16:24:09.082Z,39.30
2018-05-12T16:26:36.538Z,39.60
2018-05-12T16:29:03.995Z,39.70
2018-05-12T16:31:31.637Z,40.10
2018-05-12T16:33:59.081Z,40.50
2018-05-12T16:36:26.580Z,40.60
2018-05-12T16:38:54.145Z,40.50
2018-05-12T16:41:21.617Z,40.80
2018-05-12T16:43:49.172Z,41.10
2018-05-12T16:46:16.680Z,40.30
2018-05-12T16:48:44.227Z,40.60
2018-05-12T16:51:11.817Z,39.90
2018-05-12T16:53:39.197Z,40.00
2018-05-12T16:56:07.205Z,40.40
2018-05-12T16:58:35.429Z,40.60
2018-05-12T17:01:03.787Z,40.60
2018-05-12T17:03:31.344Z,41.10
2018-05-12T17:05:58.840Z,40.50
2018-05-12T17:08:26.300Z,40.40
2018-05-12T17:10:53.761Z,40.00
2018-05-12T17:13:21.345Z,40.30
2018-05-12T17:15:48.689Z,40.30
2018-05-12T17:18:16.237Z,40.10
2018-05-12T17:20:43.693Z,39.70
2018-05-12T17:23:11.169Z,40.20
2018-05-12T17:25:38.620Z,40.30
2018-05-12T17:28:06.169Z,39.90
2018-05-12T17:30:33.625Z,41.00
2018-05-12T17:33:01.198Z,40.00
2018-05-12T17:35:28.749Z,40.30
2018-05-12T17:37:56.355Z,40.50
2018-05-12T17:40:23.873Z,40.40
2018-05-12T17:42:52.101Z,41.00
2018-05-12T17:45:19.600Z,40.90
2018-05-12T17:47:47.195Z,41.00
2018-05-12T17:50:15.426Z,41.40
2018-05-12T17:52:42.961Z,41.30
2018-05-12T17:55:10.527Z,41.50
2018-05-12T17:57:38.017Z,41.60
2018-05-12T18:00:05.581Z,41.50
2018-05-12T18:02:33.822Z,41.90
2018-05-12T18:05:01.316Z,41.90
2018-05-12T18:07:28.881Z,43.40
2018-05-12T18:09:56.337Z,43.40
2018-05-12T18:12:23.892Z,45.00
2018-05-12T18:14:51.357Z,45.50
2018-05-12T18:17:19.011Z,46.10
2018-05-12T18:19:46.380Z,46.30
2018-05-12T18:22:13.850Z,46.80
2018-05-12T18:24:41.308Z,47.60
2018-05-12T18:27:09.566Z,48.50
2018-05-12T18:29:37.129Z,48.50
2018-05-12T18:32:04.684Z,47.90
2018-05-12T18:34:32.309Z,47.90
2018-05-12T18:36:59.765Z,48.30
2018-05-12T18:39:27.227Z,48.30
2018-05-12T18:41:54.720Z,47.90
2018-05-12T18:44:22.280Z,48.00
2018-05-12T18:46:49.711Z,47.30
2018-05-12T18:49:17.170Z,47.70
2018-05-12T18:51:44.659Z,47.80
2018-05-12T18:54:12.220Z,48.20
2018-05-12T18:56:40.504Z,49.10
2018-05-12T18:59:07.912Z,49.10
2018-05-12T19:01:35.476Z,49.60
2018-05-12T19:04:02.934Z,50.30
2018-05-12T19:06:30.424Z,51.50
2018-05-12T19:08:58.811Z,52.50
2018-05-12T19:11:26.365Z,53.10
2018-05-12T19:13:53.929Z,53.60
2018-05-12T19:16:21.389Z,54.00
2018-05-12T19:18:48.873Z,54.50
2018-05-12T19:21:17.125Z,55.40
2018-05-12T19:23:44.582Z,55.30
2018-05-12T19:26:12.044Z,55.70
2018-05-12T19:28:39.500Z,56.10
2018-05-12T19:31:07.060Z,56.40
2018-05-12T19:33:34.613Z,56.80
2018-05-12T19:36:02.194Z,57.00
2018-05-12T19:38:29.740Z,57.30
2018-05-12T19:40:57.296Z,57.60
2018-05-12T19:43:24.761Z,58.00
2018-05-12T19:45:52.227Z,58.30
2018-05-12T19:48:19.676Z,58.50
2018-05-12T19:50:47.296Z,58.70
2018-05-12T19:53:14.794Z,59.10
2018-05-12T19:55:42.262Z,59.40
2018-05-12T19:58:10.497Z,60.80
2018-05-12T20:00:37.957Z,60.00
2018-05-12T20:03:05.421Z,60.40
2018-05-12T20:05:32.889Z,60.70
2018-05-12T20:08:00.357Z,61.20
2018-05-12T20:10:27.819Z,61.50
2018-05-12T20:12:55.277Z,61.70
2018-05-12T20:15:23.561Z,62.30
2018-05-12T20:17:51.017Z,62.30
2018-05-12T20:20:18.828Z,62.60
2018-05-12T20:22:46.341Z,62.70
2018-05-12T20:25:13.796Z,63.20
2018-05-12T20:27:41.352Z,63.60
2018-05-12T20:30:08.925Z,63.90
2018-05-12T20:32:36.435Z,64.20
2018-05-12T20:35:03.895Z,64.30
2018-05-12T20:37:31.492Z,64.60
2018-05-12T20:39:58.913Z,64.80
2018-05-12T20:42:26.369Z,64.90
2018-05-12T20:44:53.828Z,64.80
2018-05-12T20:47:21.294Z,64.80
2018-05-12T20:49:48.749Z,65.40
2018-05-12T20:52:16.222Z,65.60
2018-05-12T20:54:43.705Z,65.90
2018-05-12T20:57:11.161Z,66.00
2018-05-12T20:59:38.637Z,66.10
2018-05-12T21:02:06.097Z,66.30
2018-05-12T21:04:33.636Z,66.30
2018-05-12T21:07:01.105Z,66.00
2018-05-12T21:09:29.341Z,65.70
2018-05-12T21:11:56.798Z,65.70
2018-05-12T21:14:24.301Z,65.70
2018-05-12T21:16:51.768Z,66.20
2018-05-12T21:19:19.993Z,66.40
2018-05-12T21:21:47.461Z,66.40
2018-05-12T21:24:14.939Z,66.40
2018-05-12T21:26:42.409Z,66.50
2018-05-12T21:29:09.965Z,66.50
2018-05-12T21:31:37.521Z,66.40
2018-05-12T21:34:04.993Z,66.80
2018-05-12T21:36:32.457Z,66.80
2018-05-12T21:39:00.694Z,67.00
2018-05-12T21:41:28.172Z,67.00
2018-05-12T21:43:55.730Z,67.20
2018-05-12T21:46:23.185Z,67.60
2018-05-12T21:48:50.645Z,67.50
2018-05-12T21:51:18.109Z,67.50
2018-05-12T21:53:45.565Z,67.80
2018-05-12T21:56:13.130Z,67.70
2018-05-12T21:58:40.585Z,67.50
2018-05-12T22:01:08.057Z,67.50
2018-05-12T22:03:36.308Z,68.00
2018-05-12T22:06:03.878Z,67.90
2018-05-12T22:08:31.497Z,68.00
2018-05-12T22:10:58.954Z,68.30
2018-05-12T22:13:26.410Z,68.40
2018-05-12T22:15:53.913Z,68.80
2018-05-12T22:18:21.472Z,68.90
2018-05-12T22:20:49.324Z,69.20
2018-05-12T22:23:16.772Z,69.50
2018-05-12T22:25:44.232Z,69.70
2018-05-12T22:28:11.693Z,70.00
2018-05-12T22:30:39.160Z,70.10
2018-05-12T22:33:06.622Z,70.30
2018-05-12T22:35:34.076Z,70.50
2018-05-12T22:38:01.650Z,70.60
2018-05-12T22:40:31.904Z,70.80
2018-05-12T22:43:00.148Z,70.70
2018-05-12T22:45:27.713Z,70.60
2018-05-12T22:47:55.268Z,70.90
2018-05-12T22:50:22.824Z,71.30
2018-05-12T22:52:50.349Z,71.30
2018-05-12T22:55:17.845Z,71.30
2018-05-12T22:57:45.404Z,71.60
2018-05-12T23:00:13.680Z,71.90
2018-05-12T23:02:41.249Z,72.00
2018-05-12T23:05:08.709Z,72.20
2018-05-12T23:07:36.260Z,72.30
2018-05-12T23:10:03.905Z,72.70
2018-05-12T23:12:31.386Z,72.90
2018-05-12T23:14:58.942Z,73.10
2018-05-12T23:17:26.500Z,73.30
2018-05-12T23:19:53.969Z,73.40
2018-05-12T23:22:21.524Z,73.50
2018-05-12T23:24:49.082Z,73.80
2018-05-12T23:27:16.541Z,73.90
2018-05-12T23:29:44.816Z,74.40
2018-05-12T23:32:12.376Z,74.40
2018-05-12T23:34:39.840Z,74.70
2018-05-12T23:37:07.399Z,74.80
2018-05-12T23:39:34.956Z,75.00
2018-05-12T23:42:02.478Z,74.60
2018-05-12T23:44:29.934Z,74.70
2018-05-12T23:46:57.496Z,74.80
2018-05-12T23:49:25.006Z,75.00
2018-05-12T23:51:52.561Z,75.40
2018-05-12T23:54:20.028Z,75.70
2018-05-12T23:56:47.488Z,76.00
2018-05-12T23:59:15.029Z,76.40
